createdAt,value
2022-11-02T00:00:31.055Z,101149.94
2022-11-02T00:02:58.716Z,101144.69
2022-11-02T00:05:26.613Z,101152.25
2022-11-02T00:07:55.550Z,101148.94
2022-11-02T00:10:24.521Z,101148.00
2022-11-02T00:12:54.479Z,101152.38
2022-11-02T00:15:23.157Z,101151.91
2022-11-02T00:17:52.081Z,101150.63
2022-11-02T00:20:21.555Z,101148.91
2022-11-02T00:22:52.558Z,101157.66
2022-11-02T00:25:24.393Z,101148.06
2022-11-02T00:27:53.728Z,101130.47
2022-11-02T00:30:21.305Z,101146.53
2022-11-02T00:32:48.862Z,101161.19
2022-11-02T00:35:16.643Z,101152.88
2022-11-02T00:37:44.213Z,101154.59
2022-11-02T00:40:12.561Z,101159.03
2022-11-02T00:42:40.166Z,101165.38
2022-11-02T00:45:10.455Z,101165.19
2022-11-02T00:47:38.424Z,101171.16
2022-11-02T00:50:07.200Z,101171.31
2022-11-02T00:52:34.619Z,101175.22
2022-11-02T00:55:02.119Z,101164.13
2022-11-02T00:57:29.733Z,101166.56
2022-11-02T00:59:57.307Z,101177.72
2022-11-02T01:02:26.341Z,101170.84
2022-11-02T01:04:54.000Z,101152.84
2022-11-02T01:07:21.560Z,101177.53
2022-11-02T01:09:49.234Z,101177.00
2022-11-02T01:12:16.973Z,101166.41
2022-11-02T01:14:45.148Z,101147.38
2022-11-02T01:17:12.698Z,101134.66
2022-11-02T01:19:41.811Z,101145.50
2022-11-02T01:22:09.438Z,101152.19
2022-11-02T01:24:37.489Z,101161.41
2022-11-02T01:27:05.083Z,101151.31
2022-11-02T01:29:32.644Z,101166.44
2022-11-02T01:32:00.213Z,101173.66
2022-11-02T01:34:27.805Z,101159.66
2022-11-02T01:36:56.738Z,101162.44
2022-11-02T01:39:24.260Z,101165.91
2022-11-02T01:41:52.981Z,101153.88
2022-11-02T01:44:28.129Z,101155.19
2022-11-02T01:47:00.088Z,101164.81
2022-11-02T01:49:28.745Z,101157.31
2022-11-02T01:52:01.245Z,101170.22
2022-11-02T01:54:37.865Z,101165.97
2022-11-02T01:57:07.421Z,101157.22
2022-11-02T01:59:39.584Z,101174.16
2022-11-02T02:02:12.738Z,101168.91
2022-11-02T02:04:40.595Z,101173.50
2022-11-02T02:07:09.643Z,101161.28
2022-11-02T02:09:37.442Z,101148.28
2022-11-02T02:12:06.898Z,101158.06
2022-11-02T02:14:35.467Z,101165.06
2022-11-02T02:17:18.287Z,101171.09
2022-11-02T02:19:52.947Z,101153.63
2022-11-02T02:22:58.286Z,101163.44
2022-11-02T02:25:52.559Z,101166.19
2022-11-02T02:28:31.296Z,101171.09
2022-11-02T02:31:02.395Z,101179.88
2022-11-02T02:33:35.117Z,101184.91
2022-11-02T02:36:07.869Z,101179.88
2022-11-02T02:38:42.835Z,101178.69
2022-11-02T02:41:14.416Z,101170.06
2022-11-02T02:43:47.604Z,101156.50
2022-11-02T02:46:22.409Z,101156.53
2022-11-02T02:48:52.767Z,101158.44
2022-11-02T02:51:23.799Z,101149.66
2022-11-02T02:53:58.936Z,101149.81
2022-11-02T02:56:29.135Z,101159.44
2022-11-02T02:59:02.319Z,101151.44
2022-11-02T03:01:30.223Z,101143.59
2022-11-02T03:03:57.834Z,101147.78
2022-11-02T03:06:28.972Z,101158.25
2022-11-02T03:09:07.153Z,101150.75
2022-11-02T03:11:39.745Z,101159.16
2022-11-02T03:14:22.704Z,101160.78
2022-11-02T03:17:11.048Z,101156.84
2022-11-02T03:19:45.811Z,101150.78
2022-11-02T03:22:22.210Z,101152.34
2022-11-02T03:25:00.221Z,101154.44
2022-11-02T03:27:38.976Z,101167.38
2022-11-02T03:30:10.028Z,101152.03
2022-11-02T03:32:42.644Z,101163.66
2022-11-02T03:35:17.485Z,101163.34
2022-11-02T03:37:50.973Z,101170.69
2022-11-02T03:40:22.652Z,101170.19
2022-11-02T03:42:52.931Z,101169.06
2022-11-02T03:45:25.179Z,101165.97
2022-11-02T03:47:56.850Z,101156.50
2022-11-02T03:50:25.124Z,101167.41
2022-11-02T03:53:01.935Z,101176.34
2022-11-02T03:55:34.141Z,101175.03
2022-11-02T03:58:01.970Z,101185.59
2022-11-02T04:00:35.096Z,101184.34
2022-11-02T04:03:04.244Z,101195.13
2022-11-02T04:05:34.180Z,101199.03
2022-11-02T04:08:19.896Z,101206.72
2022-11-02T04:11:05.766Z,101200.72
2022-11-02T04:13:51.825Z,101226.97
2022-11-02T04:16:26.769Z,101235.31
2022-11-02T04:19:13.334Z,101235.78
2022-11-02T04:21:41.005Z,101241.34
2022-11-02T04:24:27.272Z,101250.00
2022-11-02T04:26:54.837Z,101257.69
2022-11-02T04:29:22.434Z,101276.13
2022-11-02T04:31:51.324Z,101279.44
2022-11-02T04:34:17.880Z,101263.94
2022-11-02T04:36:45.422Z,101280.41
2022-11-02T04:39:12.000Z,101265.84
2022-11-02T04:41:42.603Z,101260.78
2022-11-02T04:44:11.205Z,101273.34
2022-11-02T04:46:40.017Z,101281.72
2022-11-02T04:49:09.339Z,101289.19
2022-11-02T04:51:37.151Z,101302.25
2022-11-02T04:54:04.966Z,101302.09
2022-11-02T04:56:32.676Z,101315.00
2022-11-02T04:59:01.490Z,101312.03
2022-11-02T05:01:30.164Z,101320.19
2022-11-02T05:03:58.123Z,101326.25
2022-11-02T05:06:27.170Z,101331.66
2022-11-02T05:08:54.773Z,101329.53
2022-11-02T05:11:22.480Z,101330.81
2022-11-02T05:13:50.031Z,101341.25
2022-11-02T05:16:18.194Z,101344.38
2022-11-02T05:18:45.805Z,101353.19
2022-11-02T05:21:14.032Z,101345.53
2022-11-02T05:23:42.954Z,101346.03
2022-11-02T05:26:12.542Z,101353.34
2022-11-02T05:28:40.445Z,101356.16
2022-11-02T05:31:08.069Z,101363.16
2022-11-02T05:33:36.139Z,101365.25
2022-11-02T05:36:03.857Z,101361.66
2022-11-02T05:38:31.465Z,101368.69
2022-11-02T05:41:01.284Z,101368.84
2022-11-02T05:43:28.953Z,101386.16
2022-11-02T05:45:57.988Z,101384.81
2022-11-02T05:48:26.760Z,101394.63
2022-11-02T05:50:55.990Z,101403.28
2022-11-02T05:53:24.056Z,101397.06
2022-11-02T05:55:52.030Z,101401.81
2022-11-02T05:58:21.032Z,101411.91
2022-11-02T06:00:48.617Z,101411.09
2022-11-02T06:03:17.457Z,101411.94
2022-11-02T06:05:45.217Z,101425.97
2022-11-02T06:08:12.967Z,101435.91
2022-11-02T06:10:42.812Z,101448.97
2022-11-02T06:13:10.807Z,101448.97
2022-11-02T06:15:39.859Z,101444.56
2022-11-02T06:18:07.816Z,101448.31
2022-11-02T06:20:35.498Z,101450.41
2022-11-02T06:23:03.607Z,101464.94
2022-11-02T06:25:31.566Z,101469.81
2022-11-02T06:27:59.272Z,101471.47
2022-11-02T06:30:27.583Z,101489.56
2022-11-02T06:32:56.566Z,101491.06
2022-11-02T06:35:24.495Z,101496.13
2022-11-02T06:37:52.124Z,101502.97
2022-11-02T06:40:22.582Z,101509.16
2022-11-02T06:43:15.237Z,101520.53
2022-11-02T06:45:43.904Z,101519.56
2022-11-02T06:48:12.827Z,101535.28
2022-11-02T06:50:40.495Z,101551.09
2022-11-02T06:53:08.354Z,101560.56
2022-11-02T06:55:36.085Z,101556.97
2022-11-02T06:58:03.690Z,101564.00
2022-11-02T07:00:31.505Z,101565.31
2022-11-02T07:03:02.850Z,101578.22
2022-11-02T07:05:32.145Z,101588.50
2022-11-02T07:08:00.160Z,101594.03
2022-11-02T07:10:29.168Z,101602.84
2022-11-02T07:12:58.191Z,101603.16
2022-11-02T07:15:27.120Z,101623.13
2022-11-02T07:17:55.105Z,101625.72
2022-11-02T07:20:23.004Z,101629.94
2022-11-02T07:22:56.090Z,101636.31
2022-11-02T07:25:25.529Z,101639.75
2022-11-02T07:27:53.091Z,101642.97
2022-11-02T07:30:21.004Z,101650.16
2022-11-02T07:32:48.588Z,101662.91
2022-11-02T07:35:17.348Z,101671.75
2022-11-02T07:37:44.808Z,101670.78
2022-11-02T07:40:15.061Z,101677.47
2022-11-02T07:42:46.512Z,101675.34
2022-11-02T07:45:14.429Z,101689.22
2022-11-02T07:47:45.946Z,101681.09
2022-11-02T07:50:14.160Z,101689.09
2022-11-02T07:52:45.928Z,101684.22
2022-11-02T07:55:16.303Z,101699.91
2022-11-02T07:57:43.952Z,101689.47
2022-11-02T08:00:12.671Z,101694.03
2022-11-02T08:02:40.221Z,101704.16
2022-11-02T08:05:08.470Z,101699.09
2022-11-02T08:07:36.009Z,101703.66
2022-11-02T08:10:03.625Z,101708.63
2022-11-02T08:12:32.590Z,101710.06
2022-11-02T08:15:04.729Z,101714.81
2022-11-02T08:17:34.845Z,101718.09
2022-11-02T08:20:02.444Z,101721.84
2022-11-02T08:22:30.015Z,101733.13
2022-11-02T08:24:57.569Z,101736.59
2022-11-02T08:27:25.127Z,101732.34
2022-11-02T08:29:54.105Z,101735.97
2022-11-02T08:32:21.661Z,101738.41
2022-11-02T08:34:49.261Z,101743.16
2022-11-02T08:37:16.801Z,101743.16
2022-11-02T08:39:44.385Z,101739.75
2022-11-02T08:42:11.995Z,101752.00
2022-11-02T08:44:42.471Z,101751.34
2022-11-02T08:47:11.708Z,101753.31
2022-11-02T08:49:39.237Z,101748.56
2022-11-02T08:52:06.827Z,101757.06
2022-11-02T08:54:34.611Z,101755.25
2022-11-02T08:57:02.179Z,101758.69
2022-11-02T08:59:29.767Z,101749.38
2022-11-02T09:01:57.448Z,101767.56
2022-11-02T09:04:26.797Z,101769.53
2022-11-02T09:06:54.368Z,101772.00
2022-11-02T09:09:22.010Z,101784.59
2022-11-02T09:11:50.810Z,101772.66
2022-11-02T09:14:18.287Z,101786.22
2022-11-02T09:16:45.922Z,101780.81
2022-11-02T09:19:13.499Z,101790.47
2022-11-02T09:21:42.437Z,101785.06
2022-11-02T09:24:10.796Z,101792.91
2022-11-02T09:26:38.388Z,101800.09
2022-11-02T09:29:06.090Z,101810.22
2022-11-02T09:31:33.845Z,101815.97
2022-11-02T09:34:01.444Z,101821.03
2022-11-02T09:36:29.060Z,101818.41
2022-11-02T09:38:58.032Z,101825.56
2022-11-02T09:41:33.612Z,101833.28
2022-11-02T09:44:04.662Z,101834.25
2022-11-02T09:46:34.961Z,101830.81
2022-11-02T09:49:06.113Z,101830.66
2022-11-02T09:51:37.638Z,101844.22
2022-11-02T09:54:17.288Z,101834.72
2022-11-02T09:56:46.515Z,101843.22
2022-11-02T09:59:16.378Z,101845.84
2022-11-02T10:01:55.402Z,101846.16
2022-11-02T10:04:58.562Z,101845.97
2022-11-02T10:07:41.391Z,101847.78
2022-11-02T10:10:15.953Z,101858.88
2022-11-02T10:12:52.334Z,101852.78
2022-11-02T10:15:23.562Z,101863.44
2022-11-02T10:17:55.717Z,101862.94
2022-11-02T10:20:27.487Z,101872.13
2022-11-02T10:22:59.436Z,101874.41
2022-11-02T10:25:28.565Z,101881.25
2022-11-02T10:28:04.395Z,101872.47
2022-11-02T10:30:33.217Z,101869.63
2022-11-02T10:33:00.923Z,101871.31
2022-11-02T10:35:51.497Z,101874.81
2022-11-02T10:38:37.772Z,101868.06
2022-11-02T10:41:20.442Z,101876.06
2022-11-02T10:44:04.318Z,101880.28
2022-11-02T10:46:55.980Z,101884.16
2022-11-02T10:49:43.849Z,101888.88
2022-11-02T10:52:15.407Z,101891.09
2022-11-02T10:54:42.964Z,101889.25
2022-11-02T10:57:13.856Z,101877.03
2022-11-02T10:59:41.886Z,101890.84
2022-11-02T11:02:14.455Z,101878.94
2022-11-02T11:04:43.429Z,101889.56
2022-11-02T11:07:17.551Z,101869.75
2022-11-02T11:09:51.387Z,101889.34
2022-11-02T11:12:22.711Z,101891.00
2022-11-02T11:20:34.495Z,101890.03
2022-11-02T11:23:11.082Z,101902.03
2022-11-02T11:25:41.046Z,101892.41
2022-11-02T11:28:23.512Z,101894.69
2022-11-02T11:31:03.416Z,101890.63
2022-11-02T11:33:33.000Z,101896.88
2022-11-02T11:36:01.103Z,101894.25
2022-11-02T11:38:29.056Z,101900.69
2022-11-02T11:40:59.840Z,101897.47
2022-11-02T11:43:38.220Z,101899.16
2022-11-02T11:46:08.197Z,101897.84
2022-11-02T11:48:39.131Z,101895.72
2022-11-02T11:51:25.720Z,101894.13
2022-11-02T11:54:22.129Z,101894.81
2022-11-02T11:56:51.202Z,101905.13
2022-11-02T11:59:30.287Z,101902.56
2022-11-02T12:02:00.388Z,101903.16
2022-11-02T12:04:30.214Z,101903.06
2022-11-02T12:07:18.674Z,101890.69
2022-11-02T12:09:50.280Z,101873.41
2022-11-02T12:12:27.565Z,101899.28
2022-11-02T12:15:07.147Z,101900.53
2022-11-02T12:17:50.980Z,101882.25
2022-11-02T12:20:36.890Z,101875.28
2022-11-02T12:23:19.450Z,101883.94
2022-11-02T12:25:55.151Z,101884.56
2022-11-02T12:28:32.753Z,101882.41
2022-11-02T12:31:11.915Z,101878.31
2022-11-02T12:34:05.487Z,101874.19
2022-11-02T12:37:26.081Z,101880.66
2022-11-02T12:39:50.324Z,101873.13
2022-11-02T12:42:26.930Z,101842.91
2022-11-02T12:45:25.689Z,101875.59
2022-11-02T12:47:58.489Z,101860.00
2022-11-02T12:50:38.550Z,101872.97
2022-11-02T12:53:22.043Z,101868.97
2022-11-02T12:55:53.263Z,101870.28
2022-11-02T12:58:23.047Z,101863.75
2022-11-02T13:00:56.159Z,101875.06
2022-11-02T13:03:34.928Z,101878.16
2022-11-02T13:06:07.956Z,101870.22
2022-11-02T13:08:41.252Z,101873.25
2022-11-02T13:11:14.740Z,101871.16
2022-11-02T13:13:47.513Z,101862.09
2022-11-02T13:16:17.791Z,101855.19
2022-11-02T13:18:49.666Z,101854.28
2022-11-02T13:21:23.358Z,101846.97
2022-11-02T13:23:54.606Z,101841.56
2022-11-02T13:26:29.115Z,101828.88
2022-11-02T13:29:01.108Z,101829.00
2022-11-02T13:31:33.387Z,101838.44
2022-11-02T13:34:06.662Z,101821.00
2022-11-02T13:36:38.017Z,101830.91
2022-11-02T13:39:13.444Z,101822.69
2022-11-02T13:42:14.779Z,101832.19
2022-11-02T13:45:16.153Z,101829.78
2022-11-02T13:48:04.593Z,101824.44
2022-11-02T13:50:40.013Z,101828.34
2022-11-02T13:53:16.043Z,101824.78
2022-11-02T13:55:47.554Z,101824.91
2022-11-02T13:58:24.535Z,101826.38
2022-11-02T14:00:54.411Z,101827.81
2022-11-02T14:03:26.169Z,101828.84
2022-11-02T14:05:58.307Z,101825.88
2022-11-02T14:08:35.532Z,101821.47
2022-11-02T14:11:06.764Z,101823.97
2022-11-02T14:14:09.151Z,101818.53
2022-11-02T14:16:47.739Z,101819.09
2022-11-02T14:19:22.393Z,101815.91
2022-11-02T14:25:17.787Z,101805.16
2022-11-02T14:27:45.582Z,101812.63
2022-11-02T14:30:48.833Z,101799.06
2022-11-02T14:33:54.951Z,101797.63
2022-11-02T14:36:40.851Z,101796.97
2022-11-02T14:39:20.864Z,101793.03
2022-11-02T14:42:05.358Z,101792.53
2022-11-02T14:44:47.247Z,101793.69
2022-11-02T14:47:17.322Z,101789.91
2022-11-02T14:49:51.169Z,101775.06
2022-11-02T14:52:27.809Z,101778.25
2022-11-02T14:55:01.587Z,101778.59
2022-11-02T14:57:35.100Z,101771.25
2022-11-02T15:00:05.817Z,101777.19
2022-11-02T15:02:40.247Z,101757.59
2022-11-02T15:05:24.006Z,101777.06
2022-11-02T15:07:55.041Z,101770.56
2022-11-02T15:10:41.480Z,101767.28
2022-11-02T15:13:48.659Z,101765.34
2022-11-02T15:16:21.890Z,101767.19
2022-11-02T15:18:49.488Z,101761.47
2022-11-02T15:21:27.420Z,101758.41
2022-11-02T15:24:20.786Z,101752.88
2022-11-02T15:26:51.778Z,101760.75
2022-11-02T15:29:44.360Z,101754.41
2022-11-02T15:32:22.404Z,101748.53
2022-11-02T15:34:51.784Z,101754.59
2022-11-02T15:37:21.615Z,101743.00
2022-11-02T15:39:50.485Z,101741.69
2022-11-02T15:42:27.978Z,101742.41
2022-11-02T15:45:34.072Z,101748.47
2022-11-02T15:48:21.391Z,101748.78
2022-11-02T15:50:57.706Z,101742.91
2022-11-02T15:53:40.504Z,101731.63
2022-11-02T15:56:34.586Z,101727.38
2022-11-02T15:59:37.152Z,101716.28
2022-11-02T16:02:23.740Z,101715.97
2022-11-02T16:04:54.106Z,101707.50
2022-11-02T16:07:29.157Z,101717.81
2022-11-02T16:10:20.521Z,101709.44
2022-11-02T16:12:48.403Z,101704.53
2022-11-02T16:15:19.701Z,101702.63
2022-11-02T16:17:50.678Z,101692.50
2022-11-02T16:20:20.225Z,101711.59
2022-11-02T16:22:49.779Z,101708.50
2022-11-02T16:25:21.894Z,101702.13
2022-11-02T16:27:49.946Z,101707.34
2022-11-02T16:30:19.846Z,101697.69
2022-11-02T16:32:52.387Z,101703.75
2022-11-02T16:35:21.374Z,101711.28
2022-11-02T16:37:50.410Z,101703.75
2022-11-02T16:40:20.538Z,101701.31
2022-11-02T16:42:49.429Z,101708.00
2022-11-02T16:45:42.140Z,101709.00
2022-11-02T16:48:26.340Z,101711.13
2022-11-02T16:51:09.252Z,101699.34
2022-11-02T16:53:42.062Z,101706.88
2022-11-02T16:56:27.650Z,101701.13
2022-11-02T16:59:01.347Z,101697.91
2022-11-02T17:01:35.240Z,101697.06
2022-11-02T17:04:15.400Z,101697.56
2022-11-02T17:06:43.815Z,101696.41
2022-11-02T17:09:22.790Z,101691.38
2022-11-02T17:11:51.530Z,101692.66
2022-11-02T17:14:19.639Z,101695.63
2022-11-02T17:17:02.866Z,101693.16
2022-11-02T17:19:47.490Z,101691.19
2022-11-02T17:22:25.292Z,101687.59
2022-11-02T17:25:12.960Z,101696.41
2022-11-02T17:27:42.632Z,101690.19
2022-11-02T17:30:44.563Z,101693.63
2022-11-02T17:33:22.826Z,101690.19
2022-11-02T17:35:54.304Z,101687.75
2022-11-02T17:38:25.567Z,101683.16
2022-11-02T17:40:54.092Z,101685.63
2022-11-02T17:43:22.062Z,101683.31
2022-11-02T17:45:55.857Z,101684.97
2022-11-02T17:48:24.455Z,101685.47
2022-11-02T17:50:55.708Z,101680.56
2022-11-02T17:53:24.653Z,101674.84
2022-11-02T17:55:52.600Z,101669.28
2022-11-02T17:58:20.188Z,101673.84
2022-11-02T18:00:48.024Z,101667.00
2022-11-02T18:03:18.998Z,101670.59
2022-11-02T18:05:50.161Z,101659.97
2022-11-02T18:08:20.617Z,101657.53
2022-11-02T18:10:51.078Z,101652.13
2022-11-02T18:13:20.939Z,101645.09
2022-11-02T18:15:48.696Z,101647.69
2022-11-02T18:18:16.536Z,101637.41
2022-11-02T18:20:44.115Z,101644.44
2022-11-02T18:23:16.505Z,101643.94
2022-11-02T18:25:45.450Z,101637.91
2022-11-02T18:28:13.840Z,101633.66
2022-11-02T18:30:43.798Z,101637.91
2022-11-02T18:33:13.823Z,101633.66
2022-11-02T18:35:42.252Z,101612.41
2022-11-02T18:38:10.063Z,101622.38
2022-11-02T18:40:37.680Z,101626.13
2022-11-02T18:43:06.927Z,101615.19
2022-11-02T18:45:34.899Z,101613.53
2022-11-02T18:48:02.947Z,101610.28
2022-11-02T18:50:30.811Z,101603.72
2022-11-02T18:52:58.441Z,101597.84
2022-11-02T18:55:26.085Z,101588.88
2022-11-02T18:57:53.728Z,101577.41
2022-11-02T19:00:22.802Z,101579.72
2022-11-02T19:02:50.460Z,101570.06
2022-11-02T19:05:43.805Z,101561.25
2022-11-02T19:08:28.899Z,101557.16
2022-11-02T19:10:56.649Z,101556.34
2022-11-02T19:13:24.270Z,101548.66
2022-11-02T19:15:53.302Z,101544.91
2022-11-02T19:18:20.910Z,101548.66
2022-11-02T19:20:48.607Z,101542.78
2022-11-02T19:23:16.156Z,101539.38
2022-11-02T19:25:50.081Z,101534.78
2022-11-02T19:28:17.988Z,101539.84
2022-11-02T19:30:45.624Z,101535.94
2022-11-02T19:33:14.718Z,101525.00
2022-11-02T19:35:42.318Z,101527.78
2022-11-02T19:38:10.040Z,101525.19
2022-11-02T19:40:37.876Z,101513.53
2022-11-02T19:43:05.552Z,101517.78
2022-11-02T19:45:33.336Z,101511.44
2022-11-02T19:48:02.747Z,101515.84
2022-11-02T19:50:31.887Z,101517.66
2022-11-02T19:53:01.082Z,101517.31
2022-11-02T19:55:29.692Z,101511.94
2022-11-02T19:57:57.398Z,101511.13
2022-11-02T20:00:25.012Z,101511.44
2022-11-02T20:02:52.669Z,101503.78
2022-11-02T20:05:20.421Z,101498.38
2022-11-02T20:07:49.537Z,101493.97
2022-11-02T20:10:17.200Z,101501.00
2022-11-02T20:12:44.908Z,101492.16
2022-11-02T20:15:12.518Z,101489.88
2022-11-02T20:17:58.502Z,101487.09
2022-11-02T20:20:28.057Z,101480.38
2022-11-02T20:22:57.240Z,101485.59
2022-11-02T20:25:25.795Z,101484.78
2022-11-02T20:27:53.914Z,101482.38
2022-11-02T20:30:22.271Z,101475.50
2022-11-02T20:32:50.370Z,101474.81
2022-11-02T20:35:22.695Z,101468.44
2022-11-02T20:37:50.248Z,101463.03
2022-11-02T20:40:19.223Z,101470.56
2022-11-02T20:42:49.508Z,101452.59
2022-11-02T20:45:17.809Z,101472.19
2022-11-02T20:47:45.528Z,101470.19
2022-11-02T20:50:16.667Z,101466.97
2022-11-02T20:52:45.541Z,101449.00
2022-11-02T20:55:13.365Z,101454.69
2022-11-02T20:57:42.311Z,101452.53
2022-11-02T21:00:11.555Z,101462.34
2022-11-02T21:02:39.147Z,101448.94
2022-11-02T21:05:07.380Z,101454.50
2022-11-02T21:07:35.031Z,101451.44
2022-11-02T21:10:02.918Z,101458.75
2022-11-02T21:12:48.369Z,101455.31
2022-11-02T21:15:17.581Z,101464.97
2022-11-02T21:17:45.227Z,101455.50
2022-11-02T21:20:33.222Z,101447.66
2022-11-02T21:23:02.615Z,101442.13
2022-11-02T21:25:30.534Z,101448.66
2022-11-02T21:27:58.632Z,101442.78
2022-11-02T21:30:28.200Z,101436.72
2022-11-02T21:32:55.773Z,101429.53
2022-11-02T21:35:23.943Z,101427.09
2022-11-02T21:37:51.537Z,101421.03
2022-11-02T21:40:19.247Z,101423.00
2022-11-02T21:42:46.831Z,101415.16
2022-11-02T21:45:17.981Z,101406.84
2022-11-02T21:47:50.231Z,101416.00
2022-11-02T21:50:18.061Z,101398.72
2022-11-02T21:52:45.601Z,101395.41
2022-11-02T21:55:13.258Z,101396.38
2022-11-02T21:57:40.831Z,101387.22
2022-11-02T22:00:10.363Z,101407.16
2022-11-02T22:02:37.184Z,101399.97
2022-11-02T22:05:06.821Z,101400.13
2022-11-02T22:07:54.956Z,101389.34
2022-11-02T22:10:22.737Z,101380.69
2022-11-02T22:13:08.229Z,101382.97
2022-11-02T22:15:38.418Z,101368.09
2022-11-02T22:18:06.387Z,101369.25
2022-11-02T22:20:35.418Z,101357.50
2022-11-02T22:23:03.217Z,101359.78
2022-11-02T22:25:30.940Z,101362.09
2022-11-02T22:27:58.521Z,101357.03
2022-11-02T22:30:26.049Z,101345.59
2022-11-02T22:32:53.613Z,101341.81
2022-11-02T22:35:21.170Z,101342.34
2022-11-02T22:38:07.831Z,101343.75
2022-11-02T22:40:35.394Z,101341.53
2022-11-02T22:43:03.121Z,101321.09
2022-11-02T22:45:30.783Z,101290.56
2022-11-02T22:47:58.339Z,101308.81
2022-11-02T22:50:27.894Z,101305.75
2022-11-02T22:52:57.156Z,101297.72
2022-11-02T22:55:24.755Z,101290.38
2022-11-02T22:57:58.813Z,101302.81
2022-11-02T23:00:27.669Z,101291.22
2022-11-02T23:02:55.283Z,101294.16
2022-11-02T23:05:22.862Z,101286.31
2022-11-02T23:07:50.480Z,101283.88
2022-11-02T23:10:33.388Z,101282.25
2022-11-02T23:13:00.947Z,101291.53
2022-11-02T23:15:30.135Z,101284.41
2022-11-02T23:17:57.737Z,101280.97
2022-11-02T23:20:24.319Z,101266.75
2022-11-02T23:23:09.509Z,101271.50
2022-11-02T23:25:38.405Z,101273.47
2022-11-02T23:31:13.792Z,101267.75
2022-11-02T23:33:41.754Z,101260.25
2022-11-02T23:36:12.743Z,101256.84
2022-11-02T23:38:58.366Z,101250.44
2022-11-02T23:41:27.687Z,101259.47
2022-11-02T23:44:11.213Z,101262.09
2022-11-02T23:46:38.936Z,101238.75
2022-11-02T23:49:06.500Z,101259.81
2022-11-02T23:51:51.766Z,101248.88
2022-11-02T23:54:36.748Z,101258.50
2022-11-02T23:57:05.855Z,101262.41
2022-11-02T23:59:33.495Z,101250.50
